HAWK444 ETHL-ETHL

Flight info

Callsign HAWK444
Flight time 0h 6m
Altitude 1111
Route VFR
Aircraft EC45/L-SDE3FGHIRTWY/S

Departure

Time 2026-04-18 06:32
Airport Laupheim Air Base (ETHL)

Arrival

Time 2026-04-18 06:38
Airport Laupheim Air Base (ETHL)
Time Latitude Longitude Altitude Speed Heading
2026-04-18 06:09 48.21724 9.91200 1771 ft 0 kts 292°
2026-04-18 06:13 48.21723 9.91199 1776 ft 0 kts 294°
2026-04-18 06:14 48.21734 9.91179 1780 ft 6 kts 14°
2026-04-18 06:14 48.21810 9.91215 1778 ft 17 kts 12°
2026-04-18 06:14 48.21943 9.91227 1783 ft 21 kts
2026-04-18 06:14 48.22012 9.90967 1859 ft 53 kts 278°
2026-04-18 06:15 48.22041 9.90238 2045 ft 78 kts 274°
2026-04-18 06:15 48.21948 9.89386 2131 ft 88 kts 248°
2026-04-18 06:15 48.21720 9.88498 2130 ft 97 kts 248°
2026-04-18 06:15 48.21340 9.87635 2122 ft 103 kts 210°
2026-04-18 06:16 48.20618 9.87520 2128 ft 105 kts 179°
2026-04-18 06:16 48.19938 9.87758 2164 ft 100 kts 135°
2026-04-18 06:16 48.19778 9.88747 2167 ft 103 kts 91°
2026-04-18 06:16 48.19730 9.89853 2130 ft 107 kts 93°
2026-04-18 06:17 48.19675 9.90988 2089 ft 110 kts 93°
2026-04-18 06:17 48.19636 9.92126 2077 ft 109 kts 92°
2026-04-18 06:17 48.19616 9.93241 2109 ft 104 kts 91°
2026-04-18 06:17 48.19838 9.94171 2181 ft 97 kts 33°
2026-04-18 06:18 48.20495 9.94260 2222 ft 97 kts 356°
2026-04-18 06:18 48.21166 9.94159 2252 ft 97 kts 352°
2026-04-18 06:18 48.21785 9.93890 2127 ft 89 kts 311°
2026-04-18 06:18 48.21940 9.93041 2027 ft 82 kts 276°
2026-04-18 06:19 48.21955 9.92484 1956 ft 80 kts 274°
2026-04-18 06:19 48.21997 9.91426 1845 ft 70 kts 275°
2026-04-18 06:19 48.22014 9.90849 1814 ft 41 kts 278°
2026-04-18 06:19 48.22029 9.90500 1795 ft 28 kts 277°
2026-04-18 06:20 48.22033 9.90392 1774 ft 4 kts 274°
2026-04-18 06:20 48.22033 9.90378 1767 ft 1 kts 275°
2026-04-18 06:20 48.22033 9.90376 1767 ft 0 kts 275°
2026-04-18 06:21 48.22034 9.90288 1797 ft 50 kts 275°
2026-04-18 06:21 48.22018 9.89659 2017 ft 65 kts 251°
2026-04-18 06:21 48.21830 9.88959 2202 ft 80 kts 246°
2026-04-18 06:21 48.21580 9.88127 2208 ft 94 kts 244°
2026-04-18 06:22 48.21080 9.87478 2215 ft 99 kts 194°
2026-04-18 06:22 48.20382 9.87463 2231 ft 102 kts 178°
2026-04-18 06:22 48.19776 9.87862 2268 ft 98 kts 118°
2026-04-18 06:22 48.19703 9.88870 2283 ft 101 kts 90°
2026-04-18 06:23 48.19683 9.89954 2241 ft 106 kts 91°
2026-04-18 06:23 48.19653 9.91078 2211 ft 109 kts 91°
2026-04-18 06:23 48.19633 9.92215 2182 ft 109 kts 91°
2026-04-18 06:23 48.19604 9.93341 2186 ft 107 kts 91°
2026-04-18 06:24 48.19995 9.94157 2188 ft 101 kts 14°
2026-04-18 06:24 48.20672 9.94162 2231 ft 94 kts 355°
2026-04-18 06:24 48.21291 9.94073 2249 ft 85 kts 355°
2026-04-18 06:24 48.21791 9.93708 2228 ft 79 kts 308°
2026-04-18 06:25 48.21940 9.92959 2139 ft 74 kts 275°
2026-04-18 06:25 48.21970 9.92230 2012 ft 66 kts 275°
2026-04-18 06:25 48.21988 9.91610 1910 ft 51 kts 275°
2026-04-18 06:25 48.22005 9.91160 1848 ft 35 kts 275°
2026-04-18 06:26 48.22007 9.91106 1839 ft 33 kts 275°
2026-04-18 06:26 48.22014 9.90899 1808 ft 26 kts 279°
2026-04-18 06:27 48.22015 9.90886 1805 ft 26 kts 279°
2026-04-18 06:27 48.22015 9.90870 1804 ft 25 kts 279°
2026-04-18 06:27 48.22023 9.90639 1796 ft 21 kts 279°
2026-04-18 06:27 48.22030 9.90449 1780 ft 13 kts 269°
2026-04-18 06:28 48.22032 9.90384 1772 ft 1 kts 274°
2026-04-18 06:28 48.22034 9.90380 1767 ft 1 kts 274°
2026-04-18 06:28 48.22034 9.90304 1796 ft 34 kts 275°
2026-04-18 06:29 48.22030 9.89781 2014 ft 52 kts 259°
2026-04-18 06:29 48.21865 9.89157 2127 ft 80 kts 247°
2026-04-18 06:29 48.21605 9.88286 2083 ft 100 kts 245°
2026-04-18 06:29 48.21598 9.87268 2079 ft 102 kts 296°
2026-04-18 06:30 48.22009 9.86420 2113 ft 100 kts 318°
2026-04-18 06:30 48.22578 9.85824 2172 ft 97 kts 328°
2026-04-18 06:30 48.23212 9.85564 2214 ft 97 kts
2026-04-18 06:30 48.23654 9.85800 2261 ft 97 kts 25°
2026-04-18 06:31 48.24259 9.86261 2296 ft 98 kts 28°
2026-04-18 06:31 48.24795 9.86886 2321 ft 104 kts 58°
2026-04-18 06:31 48.24877 9.88036 2283 ft 119 kts 93°
2026-04-18 06:31 48.24910 9.89293 2288 ft 121 kts 72°
2026-04-18 06:32 48.25440 9.90248 2339 ft 121 kts 36°
2026-04-18 06:32 48.26190 9.90748 2380 ft 119 kts 19°
2026-04-18 06:32 48.26976 9.91124 2404 ft 115 kts 17°
2026-04-18 06:32 48.27067 9.91165 2409 ft 115 kts 17°
2026-04-18 06:33 48.27791 9.91463 2438 ft 113 kts 15°
2026-04-18 06:33 48.28557 9.91737 2466 ft 112 kts 13°
2026-04-18 06:33 48.29325 9.91921 2489 ft 112 kts 359°
2026-04-18 06:34 48.30092 9.91684 2518 ft 112 kts 346°
2026-04-18 06:34 48.30452 9.91538 2536 ft 112 kts 345°
2026-04-18 06:36 48.30809 9.91381 2559 ft 112 kts 343°
2026-04-18 06:36 48.31393 9.90670 2524 ft 112 kts 295°
2026-04-18 06:36 48.31486 9.89538 2311 ft 109 kts 269°
2026-04-18 06:37 48.31443 9.88422 1903 ft 105 kts 262°
2026-04-18 06:37 48.31238 9.87544 1707 ft 74 kts 221°
2026-04-18 06:37 48.31111 9.87383 1687 ft 69 kts 223°
2026-04-18 06:37 48.30784 9.86965 1619 ft 63 kts 216°
2026-04-18 06:38 48.30434 9.86635 1606 ft 54 kts 210°
2026-04-18 06:38 48.30241 9.86255 1608 ft 45 kts 274°
2026-04-18 06:38 48.30103 9.85930 1595 ft 43 kts 238°
2026-04-18 06:38 48.29922 9.85473 1597 ft 58 kts 240°
2026-04-18 06:39 48.29708 9.84908 1608 ft 63 kts 239°
2026-04-18 06:39 48.29462 9.84246 1591 ft 80 kts 239°
2026-04-18 06:39 48.29252 9.83700 1591 ft 11 kts 261°
2026-04-18 06:39 48.29240 9.83640 1610 ft 32 kts 247°
2026-04-18 06:40 48.29086 9.83225 1604 ft 59 kts 242°
2026-04-18 06:40 48.28862 9.82619 1608 ft 73 kts 241°
2026-04-18 06:40 48.28612 9.81958 1586 ft 68 kts 240°
2026-04-18 06:40 48.28398 9.81394 1607 ft 60 kts 238°
2026-04-18 06:41 48.28322 9.81183 1608 ft 34 kts 253°
2026-04-18 06:41 48.28290 9.80775 1621 ft 39 kts 286°
2026-04-18 06:41 48.28408 9.80345 1640 ft 45 kts 297°
2026-04-18 06:41 48.28482 9.79819 1646 ft 64 kts 255°
2026-04-18 06:42 48.28245 9.79514 1640 ft 39 kts 153°
2026-04-18 06:42 48.28126 9.79749 1633 ft 10 kts
2026-04-18 06:42 48.28155 9.79787 1607 ft 1 kts 345°
2026-04-18 06:42 48.28155 9.79788 1606 ft 0 kts 345°
2026-04-18 06:43 48.28242 9.79443 1672 ft 43 kts 332°
2026-04-18 06:43 48.28191 9.79633 1639 ft 27 kts 150°
2026-04-18 06:43 48.28167 9.79784 1615 ft 13 kts 153°
2026-04-18 06:44 48.28160 9.79813 1605 ft 1 kts 341°
2026-04-18 06:44 48.28205 9.79765 1638 ft 40 kts 300°
2026-04-18 06:44 48.27827 9.79654 1885 ft 94 kts 189°
2026-04-18 06:44 48.27927 9.78906 1895 ft 83 kts 315°
2026-04-18 06:45 48.28462 9.78756 1862 ft 80 kts 352°
2026-04-18 06:45 48.28959 9.78475 1833 ft 75 kts 316°
2026-04-18 06:45 48.29136 9.77825 1900 ft 57 kts 264°
2026-04-18 06:45 48.29305 9.77845 2129 ft 50 kts 83°
2026-04-18 06:46 48.29203 9.78234 1912 ft 41 kts 258°
2026-04-18 06:46 48.29162 9.78023 1822 ft 1 kts 255°
2026-04-18 06:46 48.29162 9.78021 1819 ft 0 kts 255°
2026-04-18 06:47 48.29161 9.78014 1832 ft 12 kts 258°
2026-04-18 06:47 48.29105 9.77486 2087 ft 66 kts 265°
2026-04-18 06:48 48.29099 9.77312 2109 ft 74 kts 267°
2026-04-18 06:53 48.29094 9.76745 2086 ft 92 kts 270°
2026-04-18 06:53 48.29097 9.75688 2027 ft 104 kts 270°
2026-04-18 06:53 48.29131 9.74621 2090 ft 101 kts 289°
2026-04-18 06:53 48.29616 9.73930 2175 ft 96 kts 325°
2026-04-18 06:54 48.30068 9.73235 2305 ft 93 kts 301°
2026-04-18 06:54 48.30284 9.72308 2367 ft 94 kts 289°
2026-04-18 06:54 48.30489 9.71375 2459 ft 94 kts 290°
2026-04-18 06:54 48.30692 9.70447 2557 ft 93 kts 289°
2026-04-18 06:55 48.30869 9.69512 2648 ft 93 kts 281°
2026-04-18 06:55 48.30866 9.68530 2650 ft 96 kts 262°
2026-04-18 06:55 48.30538 9.68524 2136 ft 83 kts 85°
2026-04-18 06:55 48.30305 9.68592 2097 ft 36 kts 205°
2026-04-18 06:56 48.30088 9.68432 2112 ft 35 kts 226°
2026-04-18 06:56 48.29922 9.67961 2135 ft 58 kts 231°
2026-04-18 06:56 48.29828 9.67407 2207 ft 56 kts 270°
2026-04-18 06:56 48.29836 9.66823 2291 ft 54 kts 279°
2026-04-18 06:57 48.29895 9.66558 2424 ft 38 kts 334°
2026-04-18 06:57 48.30718 9.65749 2220 ft 81 kts 331°
2026-04-18 06:57 48.31124 9.65179 2125 ft 84 kts 315°
2026-04-18 06:58 48.31543 9.64847 2236 ft 66 kts 330°
2026-04-18 06:59 48.31724 9.64688 2267 ft 59 kts 333°
2026-04-18 06:59 48.32043 9.64308 2335 ft 57 kts 325°
2026-04-18 07:00 48.32226 9.63905 2267 ft 38 kts 303°
2026-04-18 07:00 48.32316 9.63960 2262 ft 40 kts 150°
2026-04-18 07:00 48.32273 9.63819 2188 ft 16 kts 329°
2026-04-18 07:00 48.32307 9.63794 2164 ft 2 kts 340°
2026-04-18 07:01 48.32312 9.63790 2167 ft 0 kts 343°
2026-04-18 07:01 48.32317 9.63789 2158 ft 0 kts 343°
2026-04-18 07:02 48.32415 9.63799 2191 ft 60 kts 352°
2026-04-18 07:02 48.32593 9.64098 2239 ft 71 kts 186°
2026-04-18 07:02 48.32140 9.64280 2280 ft 66 kts 143°
2026-04-18 07:02 48.31800 9.64700 2361 ft 61 kts 136°
2026-04-18 07:03 48.31512 9.65073 2221 ft 47 kts 131°
2026-04-18 07:03 48.31417 9.65401 2131 ft 21 kts 68°
2026-04-18 07:03 48.31437 9.65469 2114 ft 2 kts 351°
2026-04-18 07:03 48.31440 9.65475 2108 ft 0 kts 327°
2026-04-18 07:05 48.31522 9.65381 2164 ft 47 kts 323°
2026-04-18 07:05 48.31922 9.65353 2422 ft 74 kts 34°
2026-04-18 07:05 48.32058 9.66138 2180 ft 79 kts 70°
2026-04-18 07:06 48.32241 9.66882 2053 ft 83 kts 86°
2026-04-18 07:06 48.32398 9.67572 1988 ft 71 kts 75°
2026-04-18 07:06 48.32502 9.68293 1985 ft 74 kts 80°
2026-04-18 07:06 48.32699 9.68843 1975 ft 61 kts 21°
2026-04-18 07:07 48.32999 9.69209 1961 ft 35 kts 348°
2026-04-18 07:07 48.33085 9.69167 1917 ft 6 kts 313°
2026-04-18 07:07 48.33234 9.69069 1944 ft 58 kts 356°
2026-04-18 07:07 48.33527 9.69060 1888 ft 24 kts 338°
2026-04-18 07:08 48.33607 9.69018 1837 ft 7 kts 338°
2026-04-18 07:08 48.33616 9.69014 1824 ft 0 kts 338°
2026-04-18 07:09 48.33761 9.68853 1922 ft 55 kts 347°
2026-04-18 07:09 48.34038 9.68410 1961 ft 76 kts 305°
2026-04-18 07:09 48.34198 9.68220 1971 ft 78 kts 341°
2026-04-18 07:10 48.34342 9.68218 1981 ft 75 kts 13°
2026-04-18 07:10 48.34737 9.68301 2014 ft 59 kts 279°
2026-04-18 07:11 48.34713 9.67577 2087 ft 76 kts 263°
2026-04-18 07:11 48.34703 9.66835 2131 ft 68 kts 272°
2026-04-18 07:11 48.34696 9.66282 2217 ft 41 kts 279°
2026-04-18 07:11 48.34546 9.65722 2278 ft 68 kts 257°
2026-04-18 07:12 48.34753 9.65181 2435 ft 61 kts 324°
2026-04-18 07:12 48.35070 9.64755 2646 ft 61 kts 315°
2026-04-18 07:12 48.35484 9.64635 2555 ft 74 kts
2026-04-18 07:12 48.36058 9.64609 2471 ft 91 kts 360°
2026-04-18 07:13 48.36725 9.64698 2222 ft 100 kts 31°
2026-04-18 07:13 48.36709 9.65664 1931 ft 106 kts 108°
2026-04-18 07:13 48.36598 9.66676 1920 ft 92 kts 92°
2026-04-18 07:13 48.36617 9.67247 2124 ft 19 kts 279°
2026-04-18 07:14 48.36573 9.67009 1905 ft 11 kts 71°
2026-04-18 07:14 48.36582 9.67063 1901 ft 3 kts 39°
2026-04-18 07:14 48.36588 9.67072 1898 ft 0 kts 32°
2026-04-18 07:15 48.36620 9.67202 1919 ft 48 kts 77°
2026-04-18 07:15 48.36713 9.67767 1901 ft 68 kts 64°
2026-04-18 07:16 48.36826 9.68586 1883 ft 90 kts 102°
2026-04-18 07:16 48.36763 9.69532 1874 ft 95 kts 90°
2026-04-18 07:16 48.36565 9.70410 1883 ft 70 kts 197°
2026-04-18 07:16 48.36603 9.70369 1859 ft 11 kts
2026-04-18 07:17 48.36631 9.70379 1845 ft 1 kts 10°
2026-04-18 07:17 48.36633 9.70383 1841 ft 0 kts
2026-04-18 07:18 48.36618 9.70400 1861 ft 22 kts 67°
2026-04-18 07:18 48.36496 9.70808 1869 ft 55 kts 78°
2026-04-18 07:18 48.36365 9.71415 2001 ft 71 kts 121°
2026-04-18 07:18 48.36281 9.72163 2126 ft 81 kts 67°
2026-04-18 07:19 48.36626 9.72920 2137 ft 95 kts 50°
2026-04-18 07:19 48.37090 9.73734 2037 ft 114 kts 47°
2026-04-18 07:19 48.37657 9.74691 1950 ft 129 kts 50°
2026-04-18 07:19 48.38185 9.75697 1820 ft 108 kts 59°
2026-04-18 07:20 48.38014 9.76475 1809 ft 87 kts 153°
2026-04-18 07:20 48.37553 9.76791 1887 ft 57 kts 130°
2026-04-18 07:20 48.37418 9.77240 1937 ft 51 kts 63°
2026-04-18 07:20 48.37275 9.77588 1965 ft 43 kts 140°
2026-04-18 07:21 48.37065 9.77803 2067 ft 36 kts 191°
2026-04-18 07:21 48.36795 9.77853 2082 ft 62 kts 104°
2026-04-18 07:21 48.36672 9.78219 2093 ft 21 kts 336°
2026-04-18 07:21 48.36679 9.78208 2086 ft 1 kts 341°
2026-04-18 07:22 48.36654 9.78369 2118 ft 47 kts 95°
2026-04-18 07:22 48.36441 9.78927 2222 ft 70 kts 144°
2026-04-18 07:22 48.36065 9.79209 2449 ft 51 kts 155°
2026-04-18 07:22 48.35743 9.79427 2420 ft 51 kts 139°
2026-04-18 07:23 48.35645 9.79906 2343 ft 51 kts 70°
2026-04-18 07:23 48.35858 9.80568 2313 ft 97 kts 58°
2026-04-18 07:23 48.36251 9.81477 2349 ft 107 kts 53°
2026-04-18 07:23 48.36742 9.82357 2347 ft 114 kts 44°
2026-04-18 07:24 48.37339 9.83217 2345 ft 122 kts 43°
2026-04-18 07:24 48.37964 9.84130 2320 ft 127 kts 40°
2026-04-18 07:24 48.38717 9.84847 2258 ft 130 kts 28°
2026-04-18 07:24 48.39501 9.85525 2225 ft 130 kts 31°
2026-04-18 07:25 48.40260 9.86247 2218 ft 129 kts 33°
2026-04-18 07:25 48.41003 9.86974 2236 ft 127 kts 33°
2026-04-18 07:25 48.41739 9.87711 2262 ft 126 kts 33°
2026-04-18 07:25 48.42468 9.88434 2289 ft 125 kts 33°
2026-04-18 07:26 48.43183 9.89188 2328 ft 125 kts 39°
2026-04-18 07:26 48.43793 9.90120 2354 ft 125 kts 52°
2026-04-18 07:26 48.44184 9.91279 2378 ft 125 kts 72°
2026-04-18 07:26 48.44309 9.92579 2410 ft 125 kts 85°
2026-04-18 07:27 48.44380 9.93883 2445 ft 125 kts 84°
2026-04-18 07:27 48.44471 9.95181 2392 ft 123 kts 82°
2026-04-18 07:27 48.44700 9.96338 2353 ft 109 kts 51°
2026-04-18 07:27 48.45308 9.96420 2419 ft 90 kts 315°
2026-04-18 07:28 48.45395 9.96025 2439 ft 84 kts 263°
2026-04-18 07:28 48.45391 9.95994 2437 ft 83 kts 259°
2026-04-18 07:28 48.45011 9.95636 2416 ft 73 kts 170°
2026-04-18 07:28 48.44769 9.96160 2289 ft 60 kts 69°
2026-04-18 07:29 48.45047 9.96277 2181 ft 40 kts 328°
2026-04-18 07:29 48.45224 9.96085 2027 ft 20 kts 324°
2026-04-18 07:29 48.45243 9.96063 1998 ft 16 kts 324°
2026-04-18 07:29 48.45251 9.96051 1987 ft 13 kts 324°
2026-04-18 07:30 48.45265 9.96033 1965 ft 0 kts 329°
2026-04-18 07:30 48.45269 9.96030 1959 ft 1 kts 55°
2026-04-18 07:30 48.45269 9.96031 1956 ft 0 kts 54°
2026-04-18 07:32 48.45254 9.96006 2041 ft 10 kts 54°
2026-04-18 07:33 48.45191 9.95866 2310 ft 21 kts 54°
2026-04-18 07:33 48.45222 9.95958 2497 ft 46 kts 53°
2026-04-18 07:33 48.45617 9.96348 2533 ft 88 kts
2026-04-18 07:33 48.46314 9.96437 2512 ft 112 kts
2026-04-18 07:34 48.47110 9.96745 2431 ft 123 kts 19°
2026-04-18 07:34 48.47921 9.97220 2382 ft 125 kts 21°
2026-04-18 07:34 48.48733 9.97707 2353 ft 126 kts 22°
2026-04-18 07:34 48.49542 9.98199 2334 ft 125 kts 23°
2026-04-18 07:35 48.50316 9.98790 2325 ft 124 kts 31°
2026-04-18 07:35 48.51030 9.99506 2346 ft 122 kts 37°
2026-04-18 07:35 48.51638 10.00375 2351 ft 121 kts 55°
2026-04-18 07:35 48.52066 10.01448 2380 ft 119 kts 64°
2026-04-18 07:36 48.52146 10.02640 2364 ft 120 kts 121°
2026-04-18 07:36 48.51666 10.02997 2314 ft 121 kts 174°
2026-04-18 07:36 48.50828 10.03150 2327 ft 122 kts 173°
2026-04-18 07:36 48.49983 10.03297 2327 ft 122 kts 173°
2026-04-18 07:37 48.48865 10.03523 2323 ft 123 kts 171°
2026-04-18 07:37 48.48293 10.03652 2320 ft 123 kts 171°
2026-04-18 07:37 48.47450 10.03860 2320 ft 123 kts 170°
2026-04-18 07:37 48.46608 10.04089 2311 ft 123 kts 169°
2026-04-18 07:38 48.45782 10.04409 2318 ft 122 kts 154°
2026-04-18 07:38 48.45024 10.04975 2346 ft 120 kts 154°
2026-04-18 07:38 48.44269 10.05501 2380 ft 119 kts 156°
2026-04-18 07:38 48.43486 10.05927 2388 ft 121 kts 169°
2026-04-18 07:39 48.42650 10.05893 2382 ft 123 kts 184°
2026-04-18 07:39 48.41788 10.05774 2379 ft 123 kts 186°
2026-04-18 07:39 48.40947 10.05619 2375 ft 123 kts 187°
2026-04-18 07:39 48.40089 10.05427 2371 ft 124 kts 188°
2026-04-18 07:40 48.39250 10.05225 2365 ft 124 kts 189°
2026-04-18 07:40 48.38399 10.05008 2365 ft 124 kts 189°
2026-04-18 07:40 48.37552 10.04781 2360 ft 124 kts 190°
2026-04-18 07:40 48.36701 10.04540 2353 ft 124 kts 191°
2026-04-18 07:41 48.35855 10.04288 2346 ft 124 kts 191°
2026-04-18 07:41 48.34999 10.04020 2336 ft 124 kts 192°
2026-04-18 07:41 48.34158 10.03745 2334 ft 124 kts 192°
2026-04-18 07:41 48.33418 10.03110 2304 ft 125 kts 229°
2026-04-18 07:42 48.32980 10.01980 2287 ft 125 kts 242°
2026-04-18 07:42 48.32581 10.00820 2280 ft 125 kts 243°
2026-04-18 07:42 48.32190 9.99655 2278 ft 125 kts 243°
2026-04-18 07:42 48.31804 9.98490 2273 ft 125 kts 243°
2026-04-18 07:43 48.31405 9.97332 2264 ft 125 kts 243°
2026-04-18 07:43 48.31013 9.96171 2259 ft 124 kts 243°
2026-04-18 07:43 48.30620 9.95012 2250 ft 124 kts 242°
2026-04-18 07:43 48.30206 9.93877 2244 ft 124 kts 240°
2026-04-18 07:44 48.29756 9.92761 2242 ft 125 kts 234°
2026-04-18 07:44 48.29063 9.92004 2223 ft 125 kts 202°
2026-04-18 07:44 48.28243 9.91584 2217 ft 125 kts 197°
2026-04-18 07:44 48.27402 9.91222 2212 ft 125 kts 194°
2026-04-18 07:45 48.26553 9.90953 2207 ft 125 kts 186°
2026-04-18 07:45 48.25700 9.91076 2196 ft 125 kts 162°
2026-04-18 07:45 48.24982 9.91798 2165 ft 125 kts 129°
2026-04-18 07:45 48.24642 9.92978 2155 ft 125 kts 97°
2026-04-18 07:46 48.24599 9.94278 2146 ft 125 kts 91°
2026-04-18 07:46 48.24422 9.95512 2145 ft 124 kts 131°
2026-04-18 07:46 48.24373 9.95586 2149 ft 124 kts 136°
2026-04-18 07:46 48.23865 9.95963 2193 ft 121 kts 163°
2026-04-18 07:47 48.23085 9.96309 2226 ft 114 kts 163°
2026-04-18 07:47 48.22342 9.96497 2290 ft 107 kts 198°
2026-04-18 07:47 48.21897 9.95673 2231 ft 106 kts 257°
2026-04-18 07:47 48.21879 9.94604 2148 ft 100 kts 276°
2026-04-18 07:48 48.21920 9.93595 2042 ft 94 kts 274°
2026-04-18 07:48 48.21950 9.92632 1909 ft 90 kts 275°
2026-04-18 07:48 48.21984 9.91769 1835 ft 72 kts 276°
2026-04-18 07:48 48.22005 9.91176 1807 ft 44 kts 279°
2026-04-18 07:49 48.22019 9.90810 1793 ft 29 kts 273°
2026-04-18 07:49 48.22025 9.90646 1788 ft 25 kts 274°
2026-04-18 07:49 48.22027 9.90528 1784 ft 23 kts 274°
2026-04-18 07:49 48.22033 9.90378 1769 ft 2 kts 271°
2026-04-18 07:50 48.22033 9.90377 1767 ft 0 kts 274°
2026-04-18 07:50 48.22037 9.90251 1790 ft 48 kts 273°
2026-04-18 07:50 48.22001 9.89659 2062 ft 64 kts 252°
2026-04-18 07:51 48.21814 9.88931 2169 ft 88 kts 246°
2026-04-18 07:51 48.21554 9.88013 2151 ft 97 kts 249°
2026-04-18 07:51 48.21651 9.87103 2196 ft 90 kts 314°
2026-04-18 07:51 48.22134 9.86512 2226 ft 93 kts 323°
2026-04-18 07:52 48.22679 9.85903 2241 ft 101 kts 323°
2026-04-18 07:52 48.23345 9.85515 2203 ft 107 kts
2026-04-18 07:52 48.24019 9.85935 2195 ft 107 kts 27°
2026-04-18 07:52 48.24675 9.86459 2206 ft 107 kts 37°
2026-04-18 07:53 48.24904 9.87456 2280 ft 104 kts 90°
2026-04-18 07:53 48.24834 9.88551 2294 ft 107 kts 96°
2026-04-18 07:53 48.24778 9.89685 2289 ft 110 kts 92°
2026-04-18 07:53 48.24749 9.90845 2261 ft 112 kts 91°
2026-04-18 07:54 48.24740 9.92021 2240 ft 112 kts 91°
2026-04-18 07:54 48.24700 9.93187 2235 ft 112 kts 93°
2026-04-18 07:54 48.24650 9.94352 2232 ft 111 kts 93°
2026-04-18 07:54 48.24537 9.95480 2228 ft 109 kts 130°
2026-04-18 07:55 48.23848 9.95939 2218 ft 109 kts 159°
2026-04-18 07:55 48.23131 9.96321 2223 ft 109 kts 161°
2026-04-18 07:55 48.22403 9.96663 2238 ft 110 kts 171°
2026-04-18 07:55 48.21885 9.95989 2186 ft 104 kts 252°
2026-04-18 07:56 48.21831 9.94971 2136 ft 94 kts 275°
2026-04-18 07:56 48.21888 9.94036 2088 ft 85 kts 275°
2026-04-18 07:56 48.21923 9.93251 2048 ft 66 kts 278°
2026-04-18 07:56 48.21954 9.92622 1963 ft 58 kts 277°
2026-04-18 07:57 48.21978 9.92072 1838 ft 48 kts 275°
2026-04-18 07:57 48.21990 9.91613 1777 ft 37 kts 277°
2026-04-18 07:57 48.21999 9.91331 1777 ft 22 kts 283°
2026-04-18 07:57 48.21938 9.91229 1775 ft 13 kts 183°
2026-04-18 07:58 48.21869 9.91145 1778 ft 6 kts 307°
2026-04-18 07:58 48.21892 9.91132 1775 ft 2 kts 56°
2026-04-18 07:58 48.21897 9.91144 1775 ft 1 kts 89°
2026-04-18 07:59 48.21898 9.91146 1774 ft 0 kts 90°